CDT,Max TemperatureF,Mean TemperatureF,Min TemperatureF,Max Dew PointF,MeanDew PointF,Min DewpointF,Max Humidity, Mean Humidity, Min Humidity, Max Sea Level PressureIn, Mean Sea Level PressureIn, Min Sea Level PressureIn, Max VisibilityMiles, Mean VisibilityMiles, Min VisibilityMiles, Max Wind SpeedMPH, Mean Wind SpeedMPH, Max Gust SpeedMPH,PrecipitationIn, CloudCover, Events, WindDirDegrees
2010-10-1,78,62,45,49,45,43,93,57,30,30.22,30.15,30.09,10,10,9,12,4,17,0.00,0,,225
2010-10-2,64,54,44,48,39,33,83,59,33,30.40,30.32,30.14,10,10,10,15,10,26,0.00,0,,16
2010-10-3,64,50,37,39,35,32,89,62,30,30.45,30.37,30.30,10,10,9,12,4,18,0.00,0,,156
2010-10-4,69,56,43,40,38,36,80,56,31,30.34,30.29,30.21,10,10,10,17,13,25,0.00,0,,160
2010-10-5,77,62,48,46,43,40,77,53,32,30.30,30.25,30.19,10,10,10,20,12,25,0.00,0,,165
2010-10-6,82,68,54,55,47,42,72,52,33,30.23,30.19,30.12,10,10,10,16,8,18,0.00,0,,231
2010-10-7,81,64,48,53,47,40,81,56,27,30.25,30.17,30.07,10,10,10,10,4,,0.00,0,,114
2010-10-8,91,73,55,54,49,41,89,49,19,30.06,29.98,29.89,10,10,10,21,11,26,0.00,0,,173
2010-10-9,82,68,55,52,44,37,70,46,21,30.03,29.95,29.90,10,9,2,18,9,26,0.00,0,,244
2010-10-10,71,60,48,51,47,44,83,63,42,29.99,29.93,29.87,10,9,2,13,3,,0.00,2,,207
2010-10-11,70,60,51,59,54,50,100,85,53,29.92,29.87,29.82,10,8,2,14,3,30,0.48,6,Rain-Thunderstorm,343
2010-10-12,73,63,53,56,51,41,100,71,44,30.28,30.08,29.92,10,10,10,21,8,28,0.00,3,,334
2010-10-13,70,54,39,42,35,29,93,53,23,30.42,30.34,30.29,10,10,4,14,8,21,0.00,0,,321
2010-10-14,80,62,44,44,35,29,71,39,16,30.31,30.16,30.05,10,8,1,16,7,23,0.00,0,,273
2010-10-15,77,59,43,42,37,31,74,46,25,30.18,30.08,29.98,10,10,10,22,4,29,0.00,0,,150
2010-10-16,80,66,52,49,43,37,74,48,29,30.14,30.02,29.94,10,10,10,22,14,30,0.00,0,,6
2010-10-17,73,58,45,46,39,33,77,53,34,30.15,30.06,29.94,10,10,10,12,6,20,0.00,0,,76
2010-10-18,69,56,45,45,37,33,77,53,28,30.08,30.03,29.94,10,10,10,15,6,22,0.00,1,,50
2010-10-19,69,58,46,44,38,31,83,54,24,30.11,30.04,29.96,10,10,10,13,4,16,0.00,2,,230
2010-10-20,77,58,41,37,35,32,76,47,21,30.06,30.00,29.95,10,10,10,12,7,20,0.00,0,,273
2010-10-21,73,56,39,40,37,34,79,50,26,30.08,30.01,29.94,10,10,10,14,6,20,0.00,1,,120
2010-10-22,73,62,51,58,54,46,86,67,49,29.91,29.85,29.75,10,10,10,18,9,25,0.00,2,,152
2010-10-23,77,67,57,62,57,46,100,80,37,29.77,29.68,29.58,10,9,5,24,13,32,0.00,2,,172
2010-10-24,71,60,50,53,50,47,97,74,47,29.73,29.66,29.54,10,10,10,14,11,,0.00,2,,247
2010-10-25,71,62,51,53,49,40,87,67,49,29.53,29.23,29.02,10,10,10,26,17,39,0.00,2,Rain,208
2010-10-26,66,54,44,41,30,24,74,46,22,29.62,29.46,29.28,10,10,10,28,16,41,0.00,1,Rain,264
2010-10-27,63,52,41,26,24,22,51,38,21,30.27,29.91,29.63,10,10,10,30,15,43,0.00,2,,284
2010-10-28,64,46,30,28,25,21,69,45,26,30.52,30.42,30.27,10,10,10,15,9,22,0.00,0,,278
2010-10-29,73,57,42,31,28,26,53,37,19,30.39,30.16,29.92,10,10,10,30,16,40,0.00,0,,186
2010-10-30,72,56,41,35,32,30,67,43,24,30.00,29.91,29.86,10,10,10,20,8,28,0.00,0,,68
2010-10-31,60,50,41,36,34,32,79,61,41,30.18,30.06,29.95,10,10,10,17,9,23,0.00,2,,60